sensor_id;sensor_type;location;lat;lon;timestamp;temperature;humidity
41058;DHT22;27499;48.884;2.258;2022-11-11T00:01:10;12.10;99.90
41058;DHT22;27499;48.884;2.258;2022-11-11T00:03:39;12.10;99.90
41058;DHT22;27499;48.884;2.258;2022-11-11T00:06:10;12.10;99.90
41058;DHT22;27499;48.884;2.258;2022-11-11T00:08:37;12.10;99.90
41058;DHT22;27499;48.884;2.258;2022-11-11T00:11:10;12.10;99.90
41058;DHT22;27499;48.884;2.258;2022-11-11T00:13:38;12.10;99.90
41058;DHT22;27499;48.884;2.258;2022-11-11T00:16:11;12.10;99.90
41058;DHT22;27499;48.884;2.258;2022-11-11T00:18:38;12.10;99.90
41058;DHT22;27499;48.884;2.258;2022-11-11T00:21:24;12.10;99.90
41058;DHT22;27499;48.884;2.258;2022-11-11T00:24:27;12.10;99.90
41058;DHT22;27499;48.884;2.258;2022-11-11T00:27:13;12.10;99.90
41058;DHT22;27499;48.884;2.258;2022-11-11T00:29:44;12.10;99.90
41058;DHT22;27499;48.884;2.258;2022-11-11T00:32:11;12.00;99.90
41058;DHT22;27499;48.884;2.258;2022-11-11T00:34:51;12.00;99.90
41058;DHT22;27499;48.884;2.258;2022-11-11T00:37:38;12.00;99.90
41058;DHT22;27499;48.884;2.258;2022-11-11T00:40:06;12.00;99.90
41058;DHT22;27499;48.884;2.258;2022-11-11T00:42:33;12.00;99.90
41058;DHT22;27499;48.884;2.258;2022-11-11T00:45:00;12.00;99.90
41058;DHT22;27499;48.884;2.258;2022-11-11T00:47:27;12.00;99.90
41058;DHT22;27499;48.884;2.258;2022-11-11T00:50:21;12.00;99.90
41058;DHT22;27499;48.884;2.258;2022-11-11T00:53:13;12.00;99.90
41058;DHT22;27499;48.884;2.258;2022-11-11T00:55:40;12.10;99.90
41058;DHT22;27499;48.884;2.258;2022-11-11T00:58:07;12.00;99.90
41058;DHT22;27499;48.884;2.258;2022-11-11T01:00:34;12.10;99.90
41058;DHT22;27499;48.884;2.258;2022-11-11T01:03:02;12.10;99.90
41058;DHT22;27499;48.884;2.258;2022-11-11T01:05:29;12.10;99.90
41058;DHT22;27499;48.884;2.258;2022-11-11T01:07:55;12.10;99.90
41058;DHT22;27499;48.884;2.258;2022-11-11T01:10:23;12.20;99.90
41058;DHT22;27499;48.884;2.258;2022-11-11T01:13:13;12.10;99.90
41058;DHT22;27499;48.884;2.258;2022-11-11T01:15:43;12.10;99.90
41058;DHT22;27499;48.884;2.258;2022-11-11T01:18:12;12.10;99.90
41058;DHT22;27499;48.884;2.258;2022-11-11T01:20:40;12.10;99.90
41058;DHT22;27499;48.884;2.258;2022-11-11T01:23:09;12.10;99.90
41058;DHT22;27499;48.884;2.258;2022-11-11T01:25:38;12.10;99.90
41058;DHT22;27499;48.884;2.258;2022-11-11T01:28:05;12.10;99.90
41058;DHT22;27499;48.884;2.258;2022-11-11T01:30:33;12.10;99.90
41058;DHT22;27499;48.884;2.258;2022-11-11T01:33:01;12.10;99.90
41058;DHT22;27499;48.884;2.258;2022-11-11T01:35:29;12.10;99.90
41058;DHT22;27499;48.884;2.258;2022-11-11T01:37:56;12.20;99.90
41058;DHT22;27499;48.884;2.258;2022-11-11T01:40:25;12.20;99.90
41058;DHT22;27499;48.884;2.258;2022-11-11T01:43:14;12.20;99.90
41058;DHT22;27499;48.884;2.258;2022-11-11T01:51:25;12.20;99.90
41058;DHT22;27499;48.884;2.258;2022-11-11T01:53:59;12.20;99.90
41058;DHT22;27499;48.884;2.258;2022-11-11T01:56:28;12.20;99.90
41058;DHT22;27499;48.884;2.258;2022-11-11T01:58:59;12.10;99.90
41058;DHT22;27499;48.884;2.258;2022-11-11T02:01:27;12.20;99.90
41058;DHT22;27499;48.884;2.258;2022-11-11T02:03:55;12.20;99.90
41058;DHT22;27499;48.884;2.258;2022-11-11T02:06:42;12.10;99.90
41058;DHT22;27499;48.884;2.258;2022-11-11T02:09:09;12.10;99.90
41058;DHT22;27499;48.884;2.258;2022-11-11T02:11:37;12.10;99.90
41058;DHT22;27499;48.884;2.258;2022-11-11T02:14:25;12.10;99.90
41058;DHT22;27499;48.884;2.258;2022-11-11T02:17:08;12.10;99.90
41058;DHT22;27499;48.884;2.258;2022-11-11T02:19:49;12.10;99.90
41058;DHT22;27499;48.884;2.258;2022-11-11T02:22:46;12.10;99.90
41058;DHT22;27499;48.884;2.258;2022-11-11T02:25:18;12.10;99.90
41058;DHT22;27499;48.884;2.258;2022-11-11T02:27:49;12.00;99.90
41058;DHT22;27499;48.884;2.258;2022-11-11T02:30:18;12.10;99.90
41058;DHT22;27499;48.884;2.258;2022-11-11T02:32:49;12.10;99.90
41058;DHT22;27499;48.884;2.258;2022-11-11T02:35:34;12.10;99.90
41058;DHT22;27499;48.884;2.258;2022-11-11T02:38:04;12.10;99.90
41058;DHT22;27499;48.884;2.258;2022-11-11T02:40:42;12.10;99.90
41058;DHT22;27499;48.884;2.258;2022-11-11T02:43:29;12.10;99.90
41058;DHT22;27499;48.884;2.258;2022-11-11T02:45:57;12.10;99.90
41058;DHT22;27499;48.884;2.258;2022-11-11T02:48:25;12.00;99.90
41058;DHT22;27499;48.884;2.258;2022-11-11T02:50:52;12.00;99.90
41058;DHT22;27499;48.884;2.258;2022-11-11T02:53:20;12.10;99.90
41058;DHT22;27499;48.884;2.258;2022-11-11T02:55:48;12.10;99.90
41058;DHT22;27499;48.884;2.258;2022-11-11T02:58:15;12.00;99.90
41058;DHT22;27499;48.884;2.258;2022-11-11T03:00:42;12.00;99.90
41058;DHT22;27499;48.884;2.258;2022-11-11T03:03:10;12.00;99.90
41058;DHT22;27499;48.884;2.258;2022-11-11T03:05:37;12.10;99.90
41058;DHT22;27499;48.884;2.258;2022-11-11T03:08:04;12.10;99.90
41058;DHT22;27499;48.884;2.258;2022-11-11T03:10:31;12.10;99.90
41058;DHT22;27499;48.884;2.258;2022-11-11T03:12:58;12.10;99.90
41058;DHT22;27499;48.884;2.258;2022-11-11T03:15:25;12.10;99.90
41058;DHT22;27499;48.884;2.258;2022-11-11T03:17:52;12.10;99.90
41058;DHT22;27499;48.884;2.258;2022-11-11T03:20:19;12.10;99.90
41058;DHT22;27499;48.884;2.258;2022-11-11T03:23:11;12.00;99.90
41058;DHT22;27499;48.884;2.258;2022-11-11T03:25:40;12.00;99.90
41058;DHT22;27499;48.884;2.258;2022-11-11T03:28:16;12.00;99.90
41058;DHT22;27499;48.884;2.258;2022-11-11T03:30:44;12.00;99.90
41058;DHT22;27499;48.884;2.258;2022-11-11T03:33:11;12.00;99.90
41058;DHT22;27499;48.884;2.258;2022-11-11T03:35:39;11.90;99.90
41058;DHT22;27499;48.884;2.258;2022-11-11T03:38:08;12.00;99.90
41058;DHT22;27499;48.884;2.258;2022-11-11T03:40:43;11.90;99.90
41058;DHT22;27499;48.884;2.258;2022-11-11T03:43:11;11.90;99.90
41058;DHT22;27499;48.884;2.258;2022-11-11T03:45:38;11.90;99.90
41058;DHT22;27499;48.884;2.258;2022-11-11T03:48:05;11.90;99.90
41058;DHT22;27499;48.884;2.258;2022-11-11T03:50:33;11.90;99.90
41058;DHT22;27499;48.884;2.258;2022-11-11T03:53:00;11.90;99.90
41058;DHT22;27499;48.884;2.258;2022-11-11T03:55:27;11.90;99.90
41058;DHT22;27499;48.884;2.258;2022-11-11T03:57:54;12.00;99.90
41058;DHT22;27499;48.884;2.258;2022-11-11T04:00:23;12.00;99.90
41058;DHT22;27499;48.884;2.258;2022-11-11T04:02:51;12.00;99.90
41058;DHT22;27499;48.884;2.258;2022-11-11T04:05:36;12.00;99.90
41058;DHT22;27499;48.884;2.258;2022-11-11T04:08:22;12.00;99.90
41058;DHT22;27499;48.884;2.258;2022-11-11T04:11:10;12.00;99.90
41058;DHT22;27499;48.884;2.258;2022-11-11T04:13:40;11.90;99.90
41058;DHT22;27499;48.884;2.258;2022-11-11T04:16:26;11.90;99.90
41058;DHT22;27499;48.884;2.258;2022-11-11T04:18:53;11.90;99.90
41058;DHT22;27499;48.884;2.258;2022-11-11T04:21:38;11.90;99.90
41058;DHT22;27499;48.884;2.258;2022-11-11T04:24:13;11.80;99.90
41058;DHT22;27499;48.884;2.258;2022-11-11T04:27:01;11.80;99.90
41058;DHT22;27499;48.884;2.258;2022-11-11T04:29:29;11.80;99.90
41058;DHT22;27499;48.884;2.258;2022-11-11T04:32:07;11.80;99.90
41058;DHT22;27499;48.884;2.258;2022-11-11T04:34:55;11.80;99.90
41058;DHT22;27499;48.884;2.258;2022-11-11T04:37:23;11.80;99.90
41058;DHT22;27499;48.884;2.258;2022-11-11T04:39:51;11.80;99.90
41058;DHT22;27499;48.884;2.258;2022-11-11T04:42:37;11.80;99.90
41058;DHT22;27499;48.884;2.258;2022-11-11T04:45:09;11.90;99.90
41058;DHT22;27499;48.884;2.258;2022-11-11T04:48:04;11.80;99.90
41058;DHT22;27499;48.884;2.258;2022-11-11T04:50:32;11.80;99.90
41058;DHT22;27499;48.884;2.258;2022-11-11T04:53:00;11.80;99.90
41058;DHT22;27499;48.884;2.258;2022-11-11T04:55:27;11.70;99.90
41058;DHT22;27499;48.884;2.258;2022-11-11T04:58:14;11.70;99.90
41058;DHT22;27499;48.884;2.258;2022-11-11T05:00:41;11.70;99.90
41058;DHT22;27499;48.884;2.258;2022-11-11T05:03:12;11.70;99.90
41058;DHT22;27499;48.884;2.258;2022-11-11T05:05:49;11.70;99.90
41058;DHT22;27499;48.884;2.258;2022-11-11T05:08:37;11.70;99.90
41058;DHT22;27499;48.884;2.258;2022-11-11T05:11:25;11.70;99.90
41058;DHT22;27499;48.884;2.258;2022-11-11T05:13:53;11.70;99.90
41058;DHT22;27499;48.884;2.258;2022-11-11T05:16:56;11.70;99.90
41058;DHT22;27499;48.884;2.258;2022-11-11T05:19:42;11.70;99.90
41058;DHT22;27499;48.884;2.258;2022-11-11T05:24:58;11.70;99.90
41058;DHT22;27499;48.884;2.258;2022-11-11T05:27:43;11.70;99.90
41058;DHT22;27499;48.884;2.258;2022-11-11T05:30:12;11.70;99.90
41058;DHT22;27499;48.884;2.258;2022-11-11T05:32:40;11.70;99.90
41058;DHT22;27499;48.884;2.258;2022-11-11T05:35:07;11.70;99.90
41058;DHT22;27499;48.884;2.258;2022-11-11T05:37:35;11.70;99.90
41058;DHT22;27499;48.884;2.258;2022-11-11T05:40:02;11.70;99.90
41058;DHT22;27499;48.884;2.258;2022-11-11T05:42:29;11.70;99.90
41058;DHT22;27499;48.884;2.258;2022-11-11T05:44:56;11.70;99.90
41058;DHT22;27499;48.884;2.258;2022-11-11T05:47:23;11.70;99.90
41058;DHT22;27499;48.884;2.258;2022-11-11T05:49:50;11.70;99.90
41058;DHT22;27499;48.884;2.258;2022-11-11T05:52:17;11.70;99.90
41058;DHT22;27499;48.884;2.258;2022-11-11T05:54:45;11.70;99.90
41058;DHT22;27499;48.884;2.258;2022-11-11T05:57:12;11.70;99.90
41058;DHT22;27499;48.884;2.258;2022-11-11T05:59:38;11.70;99.90
41058;DHT22;27499;48.884;2.258;2022-11-11T06:02:05;11.70;99.90
41058;DHT22;27499;48.884;2.258;2022-11-11T06:04:32;11.70;99.90
41058;DHT22;27499;48.884;2.258;2022-11-11T06:07:01;11.70;99.90
41058;DHT22;27499;48.884;2.258;2022-11-11T06:09:27;11.70;99.90
41058;DHT22;27499;48.884;2.258;2022-11-11T06:11:54;11.80;99.90
41058;DHT22;27499;48.884;2.258;2022-11-11T06:14:21;11.70;99.90
41058;DHT22;27499;48.884;2.258;2022-11-11T06:16:48;11.70;99.90
41058;DHT22;27499;48.884;2.258;2022-11-11T06:19:15;11.70;99.90
41058;DHT22;27499;48.884;2.258;2022-11-11T06:21:42;11.70;99.90
41058;DHT22;27499;48.884;2.258;2022-11-11T06:24:24;11.70;99.90
41058;DHT22;27499;48.884;2.258;2022-11-11T06:26:53;11.70;99.90
41058;DHT22;27499;48.884;2.258;2022-11-11T06:29:20;11.70;99.90
41058;DHT22;27499;48.884;2.258;2022-11-11T06:31:47;11.60;99.90
41058;DHT22;27499;48.884;2.258;2022-11-11T06:34:14;11.70;99.90
41058;DHT22;27499;48.884;2.258;2022-11-11T06:36:41;11.70;99.90
41058;DHT22;27499;48.884;2.258;2022-11-11T06:39:08;11.70;99.90
41058;DHT22;27499;48.884;2.258;2022-11-11T06:41:35;11.60;99.90
41058;DHT22;27499;48.884;2.258;2022-11-11T06:44:02;11.60;99.90
41058;DHT22;27499;48.884;2.258;2022-11-11T06:46:29;11.60;99.90
41058;DHT22;27499;48.884;2.258;2022-11-11T06:48:56;11.60;99.90
41058;DHT22;27499;48.884;2.258;2022-11-11T06:51:23;11.60;99.90
41058;DHT22;27499;48.884;2.258;2022-11-11T06:53:49;11.50;99.90
41058;DHT22;27499;48.884;2.258;2022-11-11T06:56:16;11.50;99.90
41058;DHT22;27499;48.884;2.258;2022-11-11T06:58:43;11.50;99.90
41058;DHT22;27499;48.884;2.258;2022-11-11T07:01:11;11.60;99.90
41058;DHT22;27499;48.884;2.258;2022-11-11T07:03:39;11.50;99.90
41058;DHT22;27499;48.884;2.258;2022-11-11T07:06:06;11.50;99.90
41058;DHT22;27499;48.884;2.258;2022-11-11T07:08:33;11.60;99.90
41058;DHT22;27499;48.884;2.258;2022-11-11T07:11:01;11.70;99.90
41058;DHT22;27499;48.884;2.258;2022-11-11T07:13:39;11.60;99.90
41058;DHT22;27499;48.884;2.258;2022-11-11T07:16:06;11.60;99.90
41058;DHT22;27499;48.884;2.258;2022-11-11T07:18:33;11.70;99.90
41058;DHT22;27499;48.884;2.258;2022-11-11T07:21:00;11.60;99.90
41058;DHT22;27499;48.884;2.258;2022-11-11T07:23:27;11.60;99.90
41058;DHT22;27499;48.884;2.258;2022-11-11T07:25:54;11.60;99.90
41058;DHT22;27499;48.884;2.258;2022-11-11T07:28:21;11.60;99.90
41058;DHT22;27499;48.884;2.258;2022-11-11T07:30:48;11.60;99.90
41058;DHT22;27499;48.884;2.258;2022-11-11T07:33:15;11.60;99.90
41058;DHT22;27499;48.884;2.258;2022-11-11T07:35:49;11.60;99.90
41058;DHT22;27499;48.884;2.258;2022-11-11T07:38:16;11.60;99.90
41058;DHT22;27499;48.884;2.258;2022-11-11T07:40:43;11.60;99.90
41058;DHT22;27499;48.884;2.258;2022-11-11T07:43:10;11.60;99.90
41058;DHT22;27499;48.884;2.258;2022-11-11T07:45:37;11.60;99.90
41058;DHT22;27499;48.884;2.258;2022-11-11T07:48:04;11.70;99.90
41058;DHT22;27499;48.884;2.258;2022-11-11T07:50:31;11.60;99.90
41058;DHT22;27499;48.884;2.258;2022-11-11T07:52:57;11.70;99.90
41058;DHT22;27499;48.884;2.258;2022-11-11T07:55:24;11.70;99.90
41058;DHT22;27499;48.884;2.258;2022-11-11T07:57:51;11.70;99.90
41058;DHT22;27499;48.884;2.258;2022-11-11T08:00:19;11.70;99.90
41058;DHT22;27499;48.884;2.258;2022-11-11T08:02:47;11.70;99.90
41058;DHT22;27499;48.884;2.258;2022-11-11T08:05:14;11.70;99.90
41058;DHT22;27499;48.884;2.258;2022-11-11T08:07:41;11.70;99.90
41058;DHT22;27499;48.884;2.258;2022-11-11T08:10:09;11.70;99.90
41058;DHT22;27499;48.884;2.258;2022-11-11T08:12:37;11.70;99.90
41058;DHT22;27499;48.884;2.258;2022-11-11T08:15:22;11.70;99.90
41058;DHT22;27499;48.884;2.258;2022-11-11T08:17:49;11.70;99.90
41058;DHT22;27499;48.884;2.258;2022-11-11T08:20:16;11.70;99.90
41058;DHT22;27499;48.884;2.258;2022-11-11T08:22:43;11.70;99.90
41058;DHT22;27499;48.884;2.258;2022-11-11T08:25:30;11.80;99.90
41058;DHT22;27499;48.884;2.258;2022-11-11T08:28:01;11.80;99.90
41058;DHT22;27499;48.884;2.258;2022-11-11T08:30:29;11.80;99.90
41058;DHT22;27499;48.884;2.258;2022-11-11T08:33:00;11.90;99.90
41058;DHT22;27499;48.884;2.258;2022-11-11T08:35:47;11.80;99.90
41058;DHT22;27499;48.884;2.258;2022-11-11T08:38:14;11.80;99.90
41058;DHT22;27499;48.884;2.258;2022-11-11T08:40:41;11.90;99.90
41058;DHT22;27499;48.884;2.258;2022-11-11T08:43:08;11.90;99.90
41058;DHT22;27499;48.884;2.258;2022-11-11T08:45:35;11.90;99.90
41058;DHT22;27499;48.884;2.258;2022-11-11T08:48:02;12.00;99.90
41058;DHT22;27499;48.884;2.258;2022-11-11T08:50:30;12.00;99.90
41058;DHT22;27499;48.884;2.258;2022-11-11T08:52:57;12.00;99.90
41058;DHT22;27499;48.884;2.258;2022-11-11T08:55:24;12.00;99.90
41058;DHT22;27499;48.884;2.258;2022-11-11T08:58:01;12.00;99.90
41058;DHT22;27499;48.884;2.258;2022-11-11T09:00:29;11.90;99.90
41058;DHT22;27499;48.884;2.258;2022-11-11T09:03:00;12.00;99.90
41058;DHT22;27499;48.884;2.258;2022-11-11T09:05:28;12.00;99.90
41058;DHT22;27499;48.884;2.258;2022-11-11T09:07:55;12.00;99.90
41058;DHT22;27499;48.884;2.258;2022-11-11T09:10:22;12.00;99.90
41058;DHT22;27499;48.884;2.258;2022-11-11T09:12:55;12.00;99.90
41058;DHT22;27499;48.884;2.258;2022-11-11T09:15:22;12.00;99.90
41058;DHT22;27499;48.884;2.258;2022-11-11T09:17:49;12.00;99.90
41058;DHT22;27499;48.884;2.258;2022-11-11T09:20:16;11.90;99.90
41058;DHT22;27499;48.884;2.258;2022-11-11T09:22:50;12.00;99.90
41058;DHT22;27499;48.884;2.258;2022-11-11T09:25:19;12.00;99.90
41058;DHT22;27499;48.884;2.258;2022-11-11T09:27:53;12.00;99.90
41058;DHT22;27499;48.884;2.258;2022-11-11T09:30:21;12.10;99.90
41058;DHT22;27499;48.884;2.258;2022-11-11T09:32:48;12.10;99.90
41058;DHT22;27499;48.884;2.258;2022-11-11T09:35:14;12.10;99.90
41058;DHT22;27499;48.884;2.258;2022-11-11T09:37:41;12.10;99.90
41058;DHT22;27499;48.884;2.258;2022-11-11T09:40:16;12.20;99.90
41058;DHT22;27499;48.884;2.258;2022-11-11T09:42:54;12.20;99.90
41058;DHT22;27499;48.884;2.258;2022-11-11T09:48:39;12.20;99.90
41058;DHT22;27499;48.884;2.258;2022-11-11T09:51:26;12.20;99.90
41058;DHT22;27499;48.884;2.258;2022-11-11T09:53:59;12.20;99.90
41058;DHT22;27499;48.884;2.258;2022-11-11T09:56:31;12.20;99.90
41058;DHT22;27499;48.884;2.258;2022-11-11T09:59:10;12.20;99.90
41058;DHT22;27499;48.884;2.258;2022-11-11T10:01:45;12.20;99.90
41058;DHT22;27499;48.884;2.258;2022-11-11T10:04:37;12.10;99.90
41058;DHT22;27499;48.884;2.258;2022-11-11T10:07:13;12.10;99.90
41058;DHT22;27499;48.884;2.258;2022-11-11T10:09:58;12.10;99.90
41058;DHT22;27499;48.884;2.258;2022-11-11T10:12:35;12.20;99.90
41058;DHT22;27499;48.884;2.258;2022-11-11T10:15:12;12.10;99.90
41058;DHT22;27499;48.884;2.258;2022-11-11T10:20:31;12.20;99.90
41058;DHT22;27499;48.884;2.258;2022-11-11T10:23:04;12.10;99.90
41058;DHT22;27499;48.884;2.258;2022-11-11T10:25:34;12.20;99.90
41058;DHT22;27499;48.884;2.258;2022-11-11T10:28:01;12.20;99.90
41058;DHT22;27499;48.884;2.258;2022-11-11T10:30:31;12.10;99.90
41058;DHT22;27499;48.884;2.258;2022-11-11T10:33:02;12.20;99.90
41058;DHT22;27499;48.884;2.258;2022-11-11T10:35:31;12.10;99.90
41058;DHT22;27499;48.884;2.258;2022-11-11T10:40:50;12.20;99.90
41058;DHT22;27499;48.884;2.258;2022-11-11T10:43:26;12.10;99.90
41058;DHT22;27499;48.884;2.258;2022-11-11T10:46:17;12.20;99.90
41058;DHT22;27499;48.884;2.258;2022-11-11T10:49:15;12.30;99.90
41058;DHT22;27499;48.884;2.258;2022-11-11T10:51:42;12.30;99.90
41058;DHT22;27499;48.884;2.258;2022-11-11T10:54:16;12.30;99.90
41058;DHT22;27499;48.884;2.258;2022-11-11T10:56:55;12.30;99.90
41058;DHT22;27499;48.884;2.258;2022-11-11T10:59:24;12.30;99.90
41058;DHT22;27499;48.884;2.258;2022-11-11T11:01:56;12.30;99.90
41058;DHT22;27499;48.884;2.258;2022-11-11T11:04:36;12.30;99.90
41058;DHT22;27499;48.884;2.258;2022-11-11T11:07:05;12.30;99.90
41058;DHT22;27499;48.884;2.258;2022-11-11T11:12:54;12.40;99.90
41058;DHT22;27499;48.884;2.258;2022-11-11T11:15:26;12.30;99.90
41058;DHT22;27499;48.884;2.258;2022-11-11T11:18:02;12.30;99.90
41058;DHT22;27499;48.884;2.258;2022-11-11T11:20:30;12.40;99.90
41058;DHT22;27499;48.884;2.258;2022-11-11T11:22:57;12.40;99.90
41058;DHT22;27499;48.884;2.258;2022-11-11T11:25:26;12.50;99.90
41058;DHT22;27499;48.884;2.258;2022-11-11T11:28:08;12.50;99.90
41058;DHT22;27499;48.884;2.258;2022-11-11T11:30:35;12.60;99.90
41058;DHT22;27499;48.884;2.258;2022-11-11T11:33:05;12.70;99.90
41058;DHT22;27499;48.884;2.258;2022-11-11T11:37:59;12.70;99.90
41058;DHT22;27499;48.884;2.258;2022-11-11T11:40:26;12.70;99.90
41058;DHT22;27499;48.884;2.258;2022-11-11T11:42:54;12.80;99.90
41058;DHT22;27499;48.884;2.258;2022-11-11T11:45:25;12.80;99.90
41058;DHT22;27499;48.884;2.258;2022-11-11T11:48:15;12.80;99.90
41058;DHT22;27499;48.884;2.258;2022-11-11T11:53:51;12.90;99.90
41058;DHT22;27499;48.884;2.258;2022-11-11T11:56:44;12.90;99.90
41058;DHT22;27499;48.884;2.258;2022-11-11T12:02:03;12.90;99.90
41058;DHT22;27499;48.884;2.258;2022-11-11T12:16:03;12.90;99.90
41058;DHT22;27499;48.884;2.258;2022-11-11T12:29:59;13.00;99.90
41058;DHT22;27499;48.884;2.258;2022-11-11T12:38:29;13.00;99.90
41058;DHT22;27499;48.884;2.258;2022-11-11T12:43:44;13.00;99.90
41058;DHT22;27499;48.884;2.258;2022-11-11T13:00:19;13.00;99.90
41058;DHT22;27499;48.884;2.258;2022-11-11T13:08:46;13.00;99.90
41058;DHT22;27499;48.884;2.258;2022-11-11T13:14:50;13.10;99.90
41058;DHT22;27499;48.884;2.258;2022-11-11T13:17:21;13.00;99.90
41058;DHT22;27499;48.884;2.258;2022-11-11T13:20:02;13.10;99.90
41058;DHT22;27499;48.884;2.258;2022-11-11T13:22:31;13.10;99.90
41058;DHT22;27499;48.884;2.258;2022-11-11T13:25:03;13.10;99.90
41058;DHT22;27499;48.884;2.258;2022-11-11T13:27:43;13.10;99.90
41058;DHT22;27499;48.884;2.258;2022-11-11T13:35:42;13.20;99.90
41058;DHT22;27499;48.884;2.258;2022-11-11T13:38:21;13.20;99.90
41058;DHT22;27499;48.884;2.258;2022-11-11T13:40:51;13.20;99.90
41058;DHT22;27499;48.884;2.258;2022-11-11T13:43:40;13.20;99.90
41058;DHT22;27499;48.884;2.258;2022-11-11T13:48:53;13.20;99.90
41058;DHT22;27499;48.884;2.258;2022-11-11T13:53:58;13.20;99.90
41058;DHT22;27499;48.884;2.258;2022-11-11T13:56:28;13.30;99.90
41058;DHT22;27499;48.884;2.258;2022-11-11T13:58:57;13.20;99.90
41058;DHT22;27499;48.884;2.258;2022-11-11T14:01:32;13.30;99.90
41058;DHT22;27499;48.884;2.258;2022-11-11T14:04:08;13.30;99.90
41058;DHT22;27499;48.884;2.258;2022-11-11T14:10:49;13.30;99.90
41058;DHT22;27499;48.884;2.258;2022-11-11T14:12:41;13.40;99.90
41058;DHT22;27499;48.884;2.258;2022-11-11T14:18:08;13.40;99.90
41058;DHT22;27499;48.884;2.258;2022-11-11T14:26:21;13.40;99.90
41058;DHT22;27499;48.884;2.258;2022-11-11T14:28:56;13.40;99.90
41058;DHT22;27499;48.884;2.258;2022-11-11T14:31:41;13.40;99.90
41058;DHT22;27499;48.884;2.258;2022-11-11T14:36:56;13.40;99.90
41058;DHT22;27499;48.884;2.258;2022-11-11T14:39:40;13.50;99.90
41058;DHT22;27499;48.884;2.258;2022-11-11T14:45:07;13.50;99.90
41058;DHT22;27499;48.884;2.258;2022-11-11T14:47:51;13.50;99.90
41058;DHT22;27499;48.884;2.258;2022-11-11T14:53:17;13.50;99.90
41058;DHT22;27499;48.884;2.258;2022-11-11T14:55:51;13.50;99.90
41058;DHT22;27499;48.884;2.258;2022-11-11T14:58:20;13.50;99.90
41058;DHT22;27499;48.884;2.258;2022-11-11T15:00:59;13.50;99.90
41058;DHT22;27499;48.884;2.258;2022-11-11T15:03:39;13.60;99.90
41058;DHT22;27499;48.884;2.258;2022-11-11T15:06:14;13.60;99.90
41058;DHT22;27499;48.884;2.258;2022-11-11T15:11:20;13.60;99.90
41058;DHT22;27499;48.884;2.258;2022-11-11T15:25:14;13.70;99.90
41058;DHT22;27499;48.884;2.258;2022-11-11T15:28:10;13.70;99.90
41058;DHT22;27499;48.884;2.258;2022-11-11T15:39:18;13.80;99.90
41058;DHT22;27499;48.884;2.258;2022-11-11T15:41:48;13.80;99.90
41058;DHT22;27499;48.884;2.258;2022-11-11T15:44:26;13.80;99.90
41058;DHT22;27499;48.884;2.258;2022-11-11T15:46:53;13.80;99.90
41058;DHT22;27499;48.884;2.258;2022-11-11T15:49:40;13.80;99.90
41058;DHT22;27499;48.884;2.258;2022-11-11T15:52:24;13.70;99.90
41058;DHT22;27499;48.884;2.258;2022-11-11T15:54:53;13.80;99.90
41058;DHT22;27499;48.884;2.258;2022-11-11T15:59:58;13.80;99.90
41058;DHT22;27499;48.884;2.258;2022-11-11T16:02:27;13.70;99.90
41058;DHT22;27499;48.884;2.258;2022-11-11T16:04:58;13.80;99.90
41058;DHT22;27499;48.884;2.258;2022-11-11T16:07:30;13.80;99.90
41058;DHT22;27499;48.884;2.258;2022-11-11T16:10:04;13.80;99.90
41058;DHT22;27499;48.884;2.258;2022-11-11T16:12:41;13.80;99.90
41058;DHT22;27499;48.884;2.258;2022-11-11T16:15:09;13.80;99.90
41058;DHT22;27499;48.884;2.258;2022-11-11T16:17:44;13.80;99.90
41058;DHT22;27499;48.884;2.258;2022-11-11T16:20:14;13.80;99.90
41058;DHT22;27499;48.884;2.258;2022-11-11T16:22:43;13.80;99.90
41058;DHT22;27499;48.884;2.258;2022-11-11T16:25:16;13.80;99.90
41058;DHT22;27499;48.884;2.258;2022-11-11T16:27:44;13.80;99.90
41058;DHT22;27499;48.884;2.258;2022-11-11T16:30:34;13.80;99.90
41058;DHT22;27499;48.884;2.258;2022-11-11T16:33:01;13.80;99.90
41058;DHT22;27499;48.884;2.258;2022-11-11T16:35:38;13.80;99.90
41058;DHT22;27499;48.884;2.258;2022-11-11T16:38:05;13.80;99.90
41058;DHT22;27499;48.884;2.258;2022-11-11T16:49:32;13.70;99.90
41058;DHT22;27499;48.884;2.258;2022-11-11T16:52:09;13.70;99.90
41058;DHT22;27499;48.884;2.258;2022-11-11T16:54:41;13.80;99.90
41058;DHT22;27499;48.884;2.258;2022-11-11T16:57:26;13.80;99.90
41058;DHT22;27499;48.884;2.258;2022-11-11T16:59:58;13.70;99.90
41058;DHT22;27499;48.884;2.258;2022-11-11T17:02:26;13.70;99.90
41058;DHT22;27499;48.884;2.258;2022-11-11T17:04:55;13.70;99.90
41058;DHT22;27499;48.884;2.258;2022-11-11T17:12:35;13.70;99.90
41058;DHT22;27499;48.884;2.258;2022-11-11T17:15:15;13.70;99.90
41058;DHT22;27499;48.884;2.258;2022-11-11T17:17:43;13.70;99.90
41058;DHT22;27499;48.884;2.258;2022-11-11T17:20:15;13.70;99.90
41058;DHT22;27499;48.884;2.258;2022-11-11T17:22:48;13.70;99.90
41058;DHT22;27499;48.884;2.258;2022-11-11T17:25:15;13.70;99.90
41058;DHT22;27499;48.884;2.258;2022-11-11T17:27:42;13.70;99.90
41058;DHT22;27499;48.884;2.258;2022-11-11T17:30:13;13.70;99.90
41058;DHT22;27499;48.884;2.258;2022-11-11T17:32:40;13.60;99.90
41058;DHT22;27499;48.884;2.258;2022-11-11T17:35:08;13.60;99.90
41058;DHT22;27499;48.884;2.258;2022-11-11T17:37:37;13.60;99.90
41058;DHT22;27499;48.884;2.258;2022-11-11T17:40:06;13.60;99.90
41058;DHT22;27499;48.884;2.258;2022-11-11T17:42:34;13.70;99.90
41058;DHT22;27499;48.884;2.258;2022-11-11T17:45:02;13.70;99.90
41058;DHT22;27499;48.884;2.258;2022-11-11T17:47:31;13.70;99.90
41058;DHT22;27499;48.884;2.258;2022-11-11T17:49:58;13.60;99.90
41058;DHT22;27499;48.884;2.258;2022-11-11T17:52:26;13.60;99.90
41058;DHT22;27499;48.884;2.258;2022-11-11T17:54:52;13.60;99.90
41058;DHT22;27499;48.884;2.258;2022-11-11T17:57:19;13.60;99.90
41058;DHT22;27499;48.884;2.258;2022-11-11T17:59:46;13.60;99.90
41058;DHT22;27499;48.884;2.258;2022-11-11T18:02:13;13.60;99.90
41058;DHT22;27499;48.884;2.258;2022-11-11T18:04:40;13.60;99.90
41058;DHT22;27499;48.884;2.258;2022-11-11T18:07:07;13.60;99.90
41058;DHT22;27499;48.884;2.258;2022-11-11T18:09:35;13.60;99.90
41058;DHT22;27499;48.884;2.258;2022-11-11T18:12:01;13.60;99.90
41058;DHT22;27499;48.884;2.258;2022-11-11T18:14:28;13.60;99.90
41058;DHT22;27499;48.884;2.258;2022-11-11T18:16:55;13.60;99.90
41058;DHT22;27499;48.884;2.258;2022-11-11T18:19:22;13.50;99.90
41058;DHT22;27499;48.884;2.258;2022-11-11T18:21:49;13.50;99.90
41058;DHT22;27499;48.884;2.258;2022-11-11T18:24:16;13.50;99.90
41058;DHT22;27499;48.884;2.258;2022-11-11T18:26:43;13.50;99.90
41058;DHT22;27499;48.884;2.258;2022-11-11T18:29:10;13.50;99.90
41058;DHT22;27499;48.884;2.258;2022-11-11T18:31:37;13.50;99.90
41058;DHT22;27499;48.884;2.258;2022-11-11T18:34:04;13.50;99.90